createdAt,value
2019-04-21T00:00:37.356Z,102345.03
2019-04-21T00:03:16.448Z,102338.39
2019-04-21T00:05:57.176Z,102335.23
2019-04-21T00:08:44.162Z,102326.39
2019-04-21T00:11:05.891Z,102331.63
2019-04-21T00:13:31.308Z,102327.16
2019-04-21T00:15:48.814Z,102329.71
2019-04-21T00:18:40.748Z,102331.03
2019-04-21T00:21:11.724Z,102325.27
2019-04-21T00:23:54.087Z,102323.87
2019-04-21T00:26:26.511Z,102319.86
2019-04-21T00:29:05.058Z,102312.86
2019-04-21T00:31:24.550Z,102319.82
2019-04-21T00:33:41.624Z,102315.77
2019-04-21T00:36:15.937Z,102311.76
2019-04-21T00:39:18.631Z,102308.98
2019-04-21T00:41:29.456Z,102311.53
2019-04-21T00:43:59.601Z,102304.39
2019-04-21T00:46:33.176Z,102307.42
2019-04-21T00:49:02.011Z,102302.97
2019-04-21T00:51:46.807Z,102298.02
2019-04-21T00:54:18.471Z,102292.13
2019-04-21T00:56:46.706Z,102294.75
2019-04-21T00:59:14.955Z,102291.13
2019-04-21T01:01:46.075Z,102291.86
2019-04-21T01:04:15.350Z,102291.75
2019-04-21T01:06:48.351Z,102287.66
2019-04-21T01:09:13.837Z,102285.34
2019-04-21T01:11:49.289Z,102285.66
2019-04-21T01:14:29.797Z,102284.17
2019-04-21T01:16:51.693Z,102280.09
2019-04-21T01:19:16.819Z,102278.75
2019-04-21T01:21:31.816Z,102279.08
2019-04-21T01:24:07.832Z,102277.27
2019-04-21T01:26:43.776Z,102283.34
2019-04-21T01:29:19.284Z,102286.34
2019-04-21T01:32:03.729Z,102286.65
2019-04-21T01:34:28.828Z,102278.16
2019-04-21T01:36:54.241Z,102282.02
2019-04-21T01:39:39.344Z,102279.16
2019-04-21T01:42:04.967Z,102281.22
2019-04-21T01:44:38.990Z,102286.33
2019-04-21T01:46:58.772Z,102282.66
2019-04-21T01:49:26.672Z,102281.19
2019-04-21T01:52:17.843Z,102278.75
2019-04-21T01:55:00.350Z,102280.81
2019-04-21T01:57:34.505Z,102281.52
2019-04-21T02:00:02.307Z,102277.82
2019-04-21T02:02:47.705Z,102282.77
2019-04-21T02:05:17.480Z,102279.59
2019-04-21T02:07:41.820Z,102275.13
2019-04-21T02:10:17.670Z,102275.83
2019-04-21T02:12:48.400Z,102272.16
2019-04-21T02:15:26.861Z,102267.65
2019-04-21T02:17:51.397Z,102266.18
2019-04-21T02:20:12.035Z,102269.56
2019-04-21T02:23:08.448Z,102268.52
2019-04-21T02:25:23.147Z,102259.55
2019-04-21T02:28:00.805Z,102264.19
2019-04-21T02:30:36.209Z,102265.39
2019-04-21T02:33:16.944Z,102258.27
2019-04-21T02:35:39.489Z,102265.97
2019-04-21T02:40:44.976Z,102255.17
2019-04-21T02:43:11.428Z,102257.25
2019-04-21T02:45:39.355Z,102246.64
2019-04-21T02:53:21.142Z,102240.56
2019-04-21T02:55:45.718Z,102232.03
2019-04-21T03:00:59.613Z,102228.75
2019-04-21T03:03:41.741Z,102223.23
2019-04-21T03:06:08.758Z,102219.64
2019-04-21T03:08:44.328Z,102226.51
2019-04-21T03:13:41.763Z,102207.36
2019-04-21T03:16:18.447Z,102210.78
2019-04-21T03:18:54.243Z,102209.28
2019-04-21T03:23:56.351Z,102204.13
2019-04-21T03:26:27.270Z,102198.98
2019-04-21T03:34:31.767Z,102181.89
2019-04-21T03:36:43.913Z,102172.77
2019-04-21T03:38:51.049Z,102178.16
2019-04-21T03:41:26.483Z,102172.09
2019-04-21T03:43:52.622Z,102174.62
2019-04-21T03:46:41.276Z,102173.26
2019-04-21T03:51:29.420Z,102168.69
2019-04-21T03:53:57.638Z,102163.33
2019-04-21T04:01:57.794Z,102163.13
2019-04-21T04:04:27.953Z,102163.89
2019-04-21T04:07:24.224Z,102164.66
2019-04-21T04:09:54.035Z,102164.99
2019-04-21T04:12:32.988Z,102164.78
2019-04-21T04:14:55.334Z,102157.25
2019-04-21T04:17:20.363Z,102157.22
2019-04-21T04:29:59.280Z,102156.39
2019-04-21T04:32:30.691Z,102152.00
2019-04-21T04:35:05.753Z,102149.25
2019-04-21T04:37:32.808Z,102152.63
2019-04-21T04:40:14.274Z,102144.67
2019-04-21T04:45:28.366Z,102142.33
2019-04-21T04:47:51.255Z,102146.16
2019-04-21T04:50:22.577Z,102146.88
2019-04-21T04:52:45.818Z,102139.84
2019-04-21T04:55:27.073Z,102143.34
2019-04-21T04:58:01.030Z,102144.75
2019-04-21T05:00:28.751Z,102147.50
2019-04-21T05:03:01.186Z,102146.38
2019-04-21T05:05:40.343Z,102139.05
2019-04-21T05:07:57.742Z,102138.31
2019-04-21T05:12:53.214Z,102129.20
2019-04-21T05:15:25.511Z,102129.59
2019-04-21T05:18:02.402Z,102126.52
2019-04-21T05:22:54.486Z,102117.33
2019-04-21T05:25:18.560Z,102117.81
2019-04-21T05:27:55.368Z,102118.30
2019-04-21T05:30:33.846Z,102116.59
2019-04-21T05:33:10.769Z,102117.58
2019-04-21T05:35:45.203Z,102123.81
2019-04-21T05:38:17.157Z,102118.70
2019-04-21T05:40:40.135Z,102114.52
2019-04-21T05:43:21.393Z,102119.05
2019-04-21T05:45:53.535Z,102120.09
2019-04-21T05:50:53.762Z,102118.64
2019-04-21T05:53:29.538Z,102121.80
2019-04-21T05:55:58.674Z,102119.38
2019-04-21T05:58:27.279Z,102113.84
2019-04-21T06:01:33.423Z,102119.34
2019-04-21T06:03:49.240Z,102114.63
2019-04-21T06:06:22.033Z,102115.30
2019-04-21T06:08:49.718Z,102112.88
2019-04-21T06:11:28.813Z,102106.59
2019-04-21T06:13:55.034Z,102106.13
2019-04-21T06:16:43.005Z,102111.58
2019-04-21T06:19:05.214Z,102107.38
2019-04-21T06:21:21.732Z,102107.56
2019-04-21T06:24:13.095Z,102107.34
2019-04-21T06:26:52.318Z,102105.19
2019-04-21T06:28:56.894Z,102102.23
2019-04-21T06:31:57.920Z,102097.13
2019-04-21T06:33:58.541Z,102101.18
2019-04-21T06:36:47.435Z,102101.82
2019-04-21T06:39:12.118Z,102101.53
2019-04-21T06:46:40.774Z,102102.00
2019-04-21T06:49:19.467Z,102092.07
2019-04-21T06:51:37.161Z,102095.77
2019-04-21T06:54:17.467Z,102092.87
2019-04-21T06:57:21.858Z,102099.14
2019-04-21T06:59:09.359Z,102098.39
2019-04-21T07:09:21.000Z,102088.88
2019-04-21T07:11:44.553Z,102093.39
2019-04-21T07:16:50.862Z,102098.95
2019-04-21T07:19:30.790Z,102096.42
2019-04-21T07:21:54.233Z,102084.67
2019-04-21T07:24:30.418Z,102084.38
2019-04-21T07:26:55.625Z,102087.08
2019-04-21T07:29:32.212Z,102085.52
2019-04-21T07:31:58.686Z,102082.09
2019-04-21T07:39:29.729Z,102085.51
2019-04-21T07:41:53.990Z,102081.73
2019-04-21T07:44:28.893Z,102079.17
2019-04-21T07:46:57.306Z,102079.72
2019-04-21T07:49:39.941Z,102072.28
2019-04-21T07:52:33.536Z,102069.70
2019-04-21T07:55:05.551Z,102077.28
2019-04-21T07:57:28.112Z,102059.81
2019-04-21T08:00:08.391Z,102056.34
2019-04-21T08:02:29.170Z,102058.15
2019-04-21T08:05:09.971Z,102055.15
2019-04-21T08:07:41.519Z,102058.80
2019-04-21T08:09:57.223Z,102055.31
2019-04-21T08:12:24.633Z,102054.00
2019-04-21T08:15:09.660Z,102050.94
2019-04-21T08:17:35.956Z,102042.58
2019-04-21T08:20:07.812Z,102042.63
2019-04-21T08:22:43.207Z,102038.67
2019-04-21T08:25:08.739Z,102043.11
2019-04-21T08:27:55.570Z,102038.72
2019-04-21T08:30:14.299Z,102038.30
2019-04-21T08:32:57.294Z,102036.97
2019-04-21T08:35:33.662Z,102032.56
2019-04-21T08:37:44.980Z,102020.66
2019-04-21T08:42:44.751Z,102027.27
2019-04-21T08:45:21.992Z,102020.63
2019-04-21T08:47:52.118Z,102021.06
2019-04-21T08:50:20.823Z,102014.41
2019-04-21T08:53:08.022Z,102012.62
2019-04-21T08:55:32.102Z,102011.71
2019-04-21T08:58:15.236Z,102016.56
2019-04-21T09:00:56.362Z,102008.56
2019-04-21T09:03:43.388Z,102005.88
2019-04-21T09:06:18.937Z,102010.23
2019-04-21T09:08:46.110Z,101996.09
2019-04-21T09:11:14.964Z,101996.06
2019-04-21T09:13:40.963Z,101991.58
2019-04-21T09:16:16.944Z,101991.95
2019-04-21T09:18:40.445Z,101988.78
2019-04-21T09:21:21.868Z,101983.86
2019-04-21T09:23:45.305Z,101986.44
2019-04-21T09:26:20.087Z,101981.50
2019-04-21T09:28:45.214Z,101980.16
2019-04-21T09:31:06.371Z,101981.81
2019-04-21T09:33:40.721Z,101969.77
2019-04-21T09:36:09.701Z,101968.86
2019-04-21T09:38:41.546Z,101967.46
2019-04-21T09:41:14.297Z,101965.55
2019-04-21T09:43:45.307Z,101966.73
2019-04-21T09:46:09.825Z,101964.91
2019-04-21T09:48:49.861Z,101962.09
2019-04-21T09:51:11.066Z,101967.70
2019-04-21T09:53:42.227Z,101960.48
2019-04-21T09:56:16.700Z,101958.59
2019-04-21T09:58:49.462Z,101954.05
2019-04-21T10:01:22.817Z,101944.17
2019-04-21T10:03:48.649Z,101949.80
2019-04-21T10:06:18.750Z,101948.73
2019-04-21T10:08:49.506Z,101941.93
2019-04-21T10:11:20.768Z,101941.39
2019-04-21T10:13:50.713Z,101938.16
2019-04-21T10:16:24.627Z,101928.70
2019-04-21T10:18:54.789Z,101923.62
2019-04-21T10:21:25.829Z,101918.67
2019-04-21T10:23:55.166Z,101908.84
2019-04-21T10:26:24.503Z,101912.14
2019-04-21T10:28:58.585Z,101906.62
2019-04-21T10:31:24.990Z,101906.39
2019-04-21T10:33:54.557Z,101904.38
2019-04-21T10:36:26.858Z,101893.52
2019-04-21T10:38:55.838Z,101894.18
2019-04-21T10:41:26.083Z,101889.97
2019-04-21T10:43:55.589Z,101888.45
2019-04-21T10:46:24.918Z,101885.78
2019-04-21T10:48:55.010Z,101878.44
2019-04-21T10:51:25.447Z,101872.28
2019-04-21T10:53:55.997Z,101872.50
2019-04-21T10:56:31.312Z,101864.14
2019-04-21T10:58:56.424Z,101860.27
2019-04-21T11:01:27.377Z,101854.58
2019-04-21T11:04:21.901Z,101849.38
2019-04-21T11:06:48.210Z,101842.72
2019-04-21T11:09:17.976Z,101840.75
2019-04-21T11:11:49.893Z,101835.84
2019-04-21T11:14:19.328Z,101838.09
2019-04-21T11:16:51.532Z,101837.55
2019-04-21T11:19:22.035Z,101837.89
2019-04-21T11:21:52.591Z,101838.04
2019-04-21T11:24:22.999Z,101832.06
2019-04-21T11:26:53.755Z,101830.55
2019-04-21T11:29:23.402Z,101810.25
2019-04-21T11:31:52.781Z,101818.62
2019-04-21T11:34:23.076Z,101810.33
2019-04-21T11:36:52.501Z,101815.81
2019-04-21T11:39:37.581Z,101816.98
2019-04-21T11:42:01.642Z,101817.08
2019-04-21T11:44:31.142Z,101808.95
2019-04-21T11:47:00.629Z,101800.84
2019-04-21T11:49:32.006Z,101802.20
2019-04-21T11:52:00.942Z,101795.03
2019-04-21T11:54:30.983Z,101804.11
2019-04-21T11:57:03.390Z,101805.70
2019-04-21T11:59:31.477Z,101794.56
2019-04-21T12:02:01.545Z,101794.51
2019-04-21T12:04:31.684Z,101791.67
2019-04-21T12:07:01.879Z,101785.11
2019-04-21T12:09:31.252Z,101778.17
2019-04-21T12:12:01.239Z,101780.50
2019-04-21T12:14:32.124Z,101771.53
2019-04-21T12:17:02.671Z,101765.75
2019-04-21T12:19:33.076Z,101765.70
2019-04-21T12:22:10.992Z,101759.15
2019-04-21T12:24:36.834Z,101758.34
2019-04-21T12:27:06.127Z,101748.52
2019-04-21T12:29:35.637Z,101748.14
2019-04-21T12:32:09.772Z,101740.16
2019-04-21T12:34:39.745Z,101740.16
2019-04-21T12:37:09.035Z,101731.33
2019-04-21T12:39:38.763Z,101726.48
2019-04-21T12:42:09.142Z,101728.14
2019-04-21T12:44:39.174Z,101725.20
2019-04-21T12:47:09.988Z,101728.05
2019-04-21T12:49:39.837Z,101730.62
2019-04-21T12:52:11.434Z,101721.73
2019-04-21T12:54:41.797Z,101715.34
2019-04-21T12:57:11.790Z,101720.36
2019-04-21T12:59:42.528Z,101714.70
2019-04-21T13:02:11.933Z,101713.93
2019-04-21T13:04:42.011Z,101705.70
2019-04-21T13:07:11.465Z,101709.27
2019-04-21T13:09:42.080Z,101702.70
2019-04-21T13:12:13.019Z,101702.61
2019-04-21T13:14:42.430Z,101692.38
2019-04-21T13:17:13.046Z,101689.94
2019-04-21T13:19:43.231Z,101683.56
2019-04-21T13:22:12.611Z,101686.28
2019-04-21T13:24:42.250Z,101677.86
2019-04-21T13:27:12.779Z,101669.25
2019-04-21T13:29:42.128Z,101666.88
2019-04-21T13:32:12.613Z,101665.53
2019-04-21T13:34:42.204Z,101660.21
2019-04-21T13:37:11.917Z,101657.66
2019-04-21T13:40:18.225Z,101654.14
2019-04-21T13:42:36.600Z,101654.83
2019-04-21T13:45:02.163Z,101652.77
2019-04-21T13:47:30.487Z,101647.42
2019-04-21T13:50:01.523Z,101637.91
2019-04-21T13:52:33.128Z,101636.98
2019-04-21T13:55:03.384Z,101633.82
2019-04-21T13:57:32.770Z,101625.06
2019-04-21T14:00:03.500Z,101622.78
2019-04-21T14:02:34.519Z,101621.42
2019-04-21T14:05:11.484Z,101608.28
2019-04-21T14:07:39.035Z,101606.02
2019-04-21T14:10:11.026Z,101604.86
2019-04-21T14:12:40.648Z,101601.43
2019-04-21T14:15:12.526Z,101601.48
2019-04-21T14:17:42.568Z,101598.64
2019-04-21T14:20:13.231Z,101586.42
2019-04-21T14:22:43.948Z,101582.80
2019-04-21T14:25:15.331Z,101581.83
2019-04-21T14:27:47.346Z,101578.09
2019-04-21T14:30:18.682Z,101578.88
2019-04-21T14:32:48.055Z,101574.75
2019-04-21T14:35:18.828Z,101569.67
2019-04-21T14:37:48.780Z,101563.56
2019-04-21T14:40:23.675Z,101567.11
2019-04-21T14:42:49.955Z,101560.34
2019-04-21T14:45:20.988Z,101559.64
2019-04-21T14:47:54.761Z,101557.00
2019-04-21T14:50:44.324Z,101555.97
2019-04-21T14:53:18.081Z,101550.61
2019-04-21T14:55:49.032Z,101550.44
2019-04-21T14:58:19.168Z,101537.72
2019-04-21T15:00:52.976Z,101538.78
2019-04-21T15:03:23.664Z,101532.39
2019-04-21T15:05:53.953Z,101527.84
2019-04-21T15:08:24.840Z,101526.53
2019-04-21T15:10:54.961Z,101524.59
2019-04-21T15:13:25.848Z,101524.86
2019-04-21T15:15:56.262Z,101512.03
2019-04-21T15:18:26.877Z,101518.73
2019-04-21T15:20:57.362Z,101509.13
2019-04-21T15:23:28.288Z,101508.37
2019-04-21T15:25:57.818Z,101507.80
2019-04-21T15:28:31.596Z,101507.42
2019-04-21T15:30:58.631Z,101499.96
2019-04-21T15:33:28.717Z,101493.66
2019-04-21T15:35:58.062Z,101492.69
2019-04-21T15:38:27.718Z,101477.55
2019-04-21T15:41:01.247Z,101482.54
2019-04-21T15:43:28.657Z,101475.56
2019-04-21T15:45:58.056Z,101479.47
2019-04-21T15:48:28.788Z,101472.84
2019-04-21T15:50:59.117Z,101464.56
2019-04-21T15:53:31.952Z,101467.66
2019-04-21T15:56:03.003Z,101464.83
2019-04-21T15:58:40.930Z,101464.91
2019-04-21T16:01:20.892Z,101459.84
2019-04-21T16:03:50.251Z,101462.59
2019-04-21T16:06:19.570Z,101460.67
2019-04-21T16:08:52.533Z,101461.44
2019-04-21T16:11:19.993Z,101456.03
2019-04-21T16:13:49.830Z,101447.09
2019-04-21T16:16:20.193Z,101451.39
2019-04-21T16:18:50.032Z,101441.50
2019-04-21T16:21:19.821Z,101438.08
2019-04-21T16:23:50.642Z,101437.65
2019-04-21T16:26:20.386Z,101429.52
2019-04-21T16:28:51.157Z,101425.58
2019-04-21T16:31:20.499Z,101429.73
2019-04-21T16:33:51.205Z,101423.66
2019-04-21T16:36:20.583Z,101420.04
2019-04-21T16:38:51.374Z,101419.45
2019-04-21T16:41:20.754Z,101414.88
2019-04-21T16:43:51.359Z,101389.08
2019-04-21T16:46:21.143Z,101407.30
2019-04-21T16:48:51.673Z,101399.62
2019-04-21T16:51:22.202Z,101396.64
2019-04-21T16:53:53.412Z,101396.64
2019-04-21T16:56:24.785Z,101397.45
2019-04-21T16:58:56.722Z,101395.16
2019-04-21T17:01:29.739Z,101396.92
2019-04-21T17:04:00.204Z,101394.00
2019-04-21T17:06:31.069Z,101396.59
2019-04-21T17:09:00.960Z,101383.56
2019-04-21T17:11:35.321Z,101385.22
2019-04-21T17:14:03.601Z,101391.99
2019-04-21T17:17:15.646Z,101386.95
2019-04-21T17:19:13.502Z,101386.20
2019-04-21T17:21:35.056Z,101387.73
2019-04-21T17:24:04.621Z,101379.58
2019-04-21T17:26:39.046Z,101375.69
2019-04-21T17:29:06.855Z,101376.16
2019-04-21T17:31:37.162Z,101368.62
2019-04-21T17:34:12.383Z,101370.83
2019-04-21T17:36:39.144Z,101366.62
2019-04-21T17:39:09.235Z,101366.27
2019-04-21T17:41:54.123Z,101363.94
2019-04-21T17:44:10.652Z,101362.34
2019-04-21T17:46:46.562Z,101358.77
2019-04-21T17:49:11.012Z,101359.17
2019-04-21T17:51:54.616Z,101356.50
2019-04-21T17:54:33.263Z,101358.19
2019-04-21T17:57:16.317Z,101365.45
2019-04-21T17:59:56.591Z,101357.09
2019-04-21T18:02:23.228Z,101358.34
2019-04-21T18:04:49.661Z,101356.64
2019-04-21T18:07:27.361Z,101353.17
2019-04-21T18:10:00.160Z,101360.91
2019-04-21T18:12:29.859Z,101361.91
2019-04-21T18:14:54.139Z,101363.48
2019-04-21T18:17:14.624Z,101364.73
2019-04-21T18:19:47.419Z,101363.91
2019-04-21T18:22:38.543Z,101366.02
2019-04-21T18:25:12.601Z,101370.77
2019-04-21T18:27:38.793Z,101371.65
2019-04-21T18:30:28.390Z,101371.59
2019-04-21T18:32:58.673Z,101380.38
2019-04-21T18:35:36.006Z,101372.31
2019-04-21T18:38:20.106Z,101374.91
2019-04-21T18:40:46.999Z,101373.06
2019-04-21T18:43:53.202Z,101384.14
2019-04-21T18:46:17.615Z,101377.03
2019-04-21T18:48:36.368Z,101388.69
2019-04-21T18:51:04.793Z,101375.33
2019-04-21T18:53:44.834Z,101375.83
2019-04-21T18:56:05.863Z,101372.33
2019-04-21T18:58:32.694Z,101371.00
2019-04-21T19:01:07.531Z,101365.84
2019-04-21T19:03:39.898Z,101365.47
2019-04-21T19:06:11.691Z,101362.78
2019-04-21T19:09:01.109Z,101370.70
2019-04-21T19:11:23.736Z,101374.51
2019-04-21T19:14:17.391Z,101377.46
2019-04-21T19:16:33.215Z,101383.47
2019-04-21T19:19:31.684Z,101382.91
2019-04-21T19:21:24.610Z,101374.31
2019-04-21T19:24:10.670Z,101377.66
2019-04-21T19:26:37.716Z,101380.13
2019-04-21T19:29:12.517Z,101376.81
2019-04-21T19:34:01.095Z,101375.89
2019-04-21T19:36:21.535Z,101371.53
2019-04-21T19:38:59.642Z,101370.38
2019-04-21T19:41:34.338Z,101374.92
2019-04-21T19:44:14.514Z,101374.17
2019-04-21T19:46:40.953Z,101372.63
2019-04-21T19:49:24.153Z,101371.48
2019-04-21T19:51:42.861Z,101372.14
2019-04-21T19:54:06.348Z,101371.41
2019-04-21T19:56:30.268Z,101363.59
2019-04-21T19:59:01.175Z,101369.55
2019-04-21T20:01:31.800Z,101363.97
2019-04-21T20:04:02.800Z,101355.76
2019-04-21T20:06:45.566Z,101355.90
2019-04-21T20:09:24.852Z,101357.41
2019-04-21T20:11:51.048Z,101350.50
2019-04-21T20:16:53.147Z,101345.17
2019-04-21T20:19:12.011Z,101347.12
2019-04-21T20:21:40.939Z,101342.84
2019-04-21T20:24:14.493Z,101335.49
2019-04-21T20:26:46.012Z,101343.20
2019-04-21T20:29:27.682Z,101333.64
2019-04-21T20:31:55.075Z,101330.27
2019-04-21T20:34:33.797Z,101339.68
2019-04-21T20:37:02.160Z,101334.56
2019-04-21T20:39:21.259Z,101327.20
2019-04-21T20:42:01.787Z,101335.67
2019-04-21T20:44:38.747Z,101330.49
2019-04-21T20:47:06.572Z,101322.58
2019-04-21T20:49:33.606Z,101321.80
2019-04-21T20:52:10.755Z,101319.56
2019-04-21T20:54:41.033Z,101316.09
2019-04-21T20:57:11.312Z,101319.98
2019-04-21T20:59:37.569Z,101320.80
2019-04-21T21:02:10.138Z,101318.60
2019-04-21T21:04:34.960Z,101321.22
2019-04-21T21:07:28.220Z,101322.08
2019-04-21T21:09:50.126Z,101318.97
2019-04-21T21:14:46.944Z,101312.80
2019-04-21T21:17:34.057Z,101304.92
2019-04-21T21:19:55.764Z,101307.72
2019-04-21T21:22:14.266Z,101302.95
2019-04-21T21:24:53.576Z,101304.83
2019-04-21T21:27:19.695Z,101305.67
2019-04-21T21:29:56.672Z,101306.70
2019-04-21T21:32:27.348Z,101302.86
2019-04-21T21:34:57.836Z,101303.44
2019-04-21T21:37:38.089Z,101307.56
2019-04-21T21:40:02.839Z,101299.27
2019-04-21T21:42:24.140Z,101299.83
2019-04-21T21:44:50.489Z,101300.77
2019-04-21T21:47:32.085Z,101296.45
2019-04-21T21:50:01.209Z,101295.69
2019-04-21T21:52:32.761Z,101293.14
2019-04-21T21:54:49.808Z,101289.23
2019-04-21T21:57:20.390Z,101288.02
2019-04-21T21:59:54.286Z,101292.60
2019-04-21T22:02:32.910Z,101281.27
2019-04-21T22:05:01.436Z,101281.77
2019-04-21T22:07:28.058Z,101281.44
2019-04-21T22:09:54.693Z,101280.63
2019-04-21T22:12:25.703Z,101274.16
2019-04-21T22:14:55.674Z,101279.09
2019-04-21T22:17:41.910Z,101281.81
2019-04-21T22:20:14.230Z,101276.15
2019-04-21T22:22:38.849Z,101279.77
2019-04-21T22:25:09.477Z,101271.01
2019-04-21T22:27:30.719Z,101278.11
2019-04-21T22:30:03.864Z,101277.31
2019-04-21T22:32:34.609Z,101281.31
2019-04-21T22:35:08.800Z,101275.22
2019-04-21T22:37:43.709Z,101282.30
2019-04-21T22:40:19.277Z,101283.65
2019-04-21T22:42:50.089Z,101281.92
2019-04-21T22:45:11.290Z,101286.80
2019-04-21T22:47:42.665Z,101285.97
2019-04-21T22:50:17.596Z,101282.06
2019-04-21T22:52:50.551Z,101269.77
2019-04-21T22:55:22.629Z,101268.90
2019-04-21T22:57:51.840Z,101269.80
2019-04-21T23:00:22.343Z,101267.64
2019-04-21T23:03:01.326Z,101268.13
2019-04-21T23:05:32.909Z,101262.89
2019-04-21T23:08:01.395Z,101268.61
2019-04-21T23:10:27.409Z,101269.52
2019-04-21T23:12:59.621Z,101261.61
2019-04-21T23:15:37.508Z,101261.19
2019-04-21T23:18:20.407Z,101257.26
2019-04-21T23:20:47.779Z,101256.84
2019-04-21T23:23:23.577Z,101254.66
2019-04-21T23:25:47.176Z,101254.23
2019-04-21T23:28:17.725Z,101252.50
2019-04-21T23:31:00.631Z,101250.78
2019-04-21T23:33:12.050Z,101250.79
2019-04-21T23:35:43.465Z,101244.22
2019-04-21T23:38:10.998Z,101249.47
2019-04-21T23:40:48.811Z,101256.95
2019-04-21T23:43:17.249Z,101248.20
2019-04-21T23:45:45.331Z,101246.45
2019-04-21T23:48:30.119Z,101248.22
2019-04-21T23:50:56.105Z,101242.98
2019-04-21T23:53:17.381Z,101247.36
2019-04-21T23:55:47.396Z,101247.39
2019-04-21T23:58:22.222Z,101244.31
